Bandar-E Mahshahr, Iran
Current Conditions -  °F | °C
As of 9:00 PM on Thursday 18 Dec 2014 (Local Time) from OIAM Reporting Station
Haze Haze  
Wind Chill: 54°   Ceiling: Unl
Heat Index: 54°   Visibility: 1.8mi
Dew Point: 52°   Wind: 5mph
Humidity: 94%   Direction: 10°N
Pressure: 30.18"   Gusts: NA
Location:  30.65°N, 49.22°E
Report Text: OIAM 181800Z 01004KT 3000 BR SKC 12/11 Q1022
Loading
Personal Weather Stations






























Interactive Weather Map New forecast layout! Learn more

10-Day Weather Forecast

Advertisements
Track Severe Weather on mobile